createdAt,value
2022-11-21T00:01:00.284Z,81.60
2022-11-21T00:04:16.619Z,79.70
2022-11-21T00:07:32.969Z,83.15
2022-11-21T00:10:50.074Z,84.50
2022-11-21T00:14:06.857Z,80.28
2022-11-21T00:17:23.010Z,84.93
2022-11-21T00:20:40.975Z,84.50
2022-11-21T00:23:59.591Z,83.40
2022-11-21T00:27:15.994Z,83.35
2022-11-21T00:30:32.403Z,80.45
2022-11-21T00:33:48.536Z,82.05
2022-11-21T00:37:04.809Z,81.33
2022-11-21T00:40:22.681Z,77.05
2022-11-21T00:43:39.915Z,79.98
2022-11-21T00:46:55.972Z,80.28
2022-11-21T00:50:13.353Z,79.23
2022-11-21T00:53:29.341Z,80.20
2022-11-21T00:56:45.708Z,77.85
2022-11-21T01:00:01.970Z,78.20
2022-11-21T01:03:19.349Z,80.78
2022-11-21T01:06:35.581Z,81.53
2022-11-21T01:09:52.053Z,84.03
2022-11-21T01:13:08.257Z,82.83
2022-11-21T01:16:27.963Z,86.70
2022-11-21T01:22:57.807Z,86.13
2022-11-21T01:26:15.795Z,83.68
2022-11-21T01:29:32.789Z,85.98
2022-11-21T01:32:48.889Z,82.45
2022-11-21T01:36:06.962Z,86.18
2022-11-21T01:39:23.054Z,86.15
2022-11-21T01:42:53.658Z,83.88
2022-11-21T01:46:17.772Z,83.75
2022-11-21T01:49:38.088Z,84.03
2022-11-21T01:52:54.332Z,79.80
2022-11-21T01:56:11.886Z,80.03
2022-11-21T01:59:32.372Z,76.48
2022-11-21T02:02:52.453Z,78.58
2022-11-21T02:06:09.121Z,77.75
2022-11-21T02:09:26.207Z,74.08
2022-11-21T02:12:46.818Z,74.85
2022-11-21T02:16:04.107Z,73.40
2022-11-21T02:19:26.114Z,73.20
2022-11-21T02:22:50.104Z,73.33
2022-11-21T02:26:06.605Z,69.45
2022-11-21T02:29:24.112Z,72.40
2022-11-21T02:32:47.642Z,69.35
2022-11-21T02:36:09.007Z,70.55
2022-11-21T02:39:29.720Z,70.05
2022-11-21T02:42:52.642Z,69.73
2022-11-21T02:46:08.000Z,69.75
2022-11-21T02:49:28.165Z,70.05
2022-11-21T02:52:44.628Z,70.35
2022-11-21T02:56:00.973Z,68.10
2022-11-21T02:59:17.348Z,68.95
2022-11-21T03:02:33.814Z,69.63
2022-11-21T03:05:50.890Z,66.40
2022-11-21T03:09:07.210Z,62.90
2022-11-21T03:12:23.487Z,62.98
2022-11-21T03:15:41.814Z,62.65
2022-11-21T03:18:58.776Z,61.18
2022-11-21T03:22:15.448Z,60.08
2022-11-21T03:25:32.089Z,63.23
2022-11-21T03:28:48.906Z,60.75
2022-11-21T03:32:05.072Z,61.95
2022-11-21T03:35:21.621Z,60.25
2022-11-21T03:38:37.767Z,60.78
2022-11-21T03:41:54.151Z,61.48
2022-11-21T03:45:10.935Z,60.68
2022-11-21T03:48:27.315Z,62.65
2022-11-21T03:51:46.056Z,60.13
2022-11-21T03:55:02.427Z,61.25
2022-11-21T03:58:18.982Z,60.78
2022-11-21T04:01:36.848Z,62.48
2022-11-21T04:04:53.945Z,63.77
2022-11-21T04:08:10.519Z,62.63
2022-11-21T04:11:27.442Z,63.40
2022-11-21T04:14:43.525Z,62.50
2022-11-21T04:17:59.872Z,63.68
2022-11-21T04:21:16.775Z,61.73
2022-11-21T04:24:32.945Z,63.03
2022-11-21T04:27:49.192Z,61.83
2022-11-21T04:31:11.073Z,64.90
2022-11-21T04:34:28.086Z,65.03
2022-11-21T04:37:47.049Z,64.03
2022-11-21T04:41:03.539Z,66.23
2022-11-21T04:44:19.727Z,66.83
2022-11-21T04:47:36.093Z,67.20
2022-11-21T04:50:52.810Z,70.18
2022-11-21T04:54:10.515Z,69.60
2022-11-21T04:57:26.729Z,64.80
2022-11-21T05:00:43.070Z,64.60
2022-11-21T05:03:59.903Z,67.18
2022-11-21T05:07:16.289Z,66.70
2022-11-21T05:10:34.926Z,68.03
2022-11-21T05:13:51.373Z,70.38
2022-11-21T05:17:07.497Z,72.50
2022-11-21T05:20:25.110Z,70.83
2022-11-21T05:23:42.361Z,71.65
2022-11-21T05:26:59.536Z,67.68
2022-11-21T05:30:18.821Z,70.35
2022-11-21T05:36:49.514Z,71.53
2022-11-21T05:40:06.151Z,69.08
2022-11-21T05:43:36.705Z,68.93
2022-11-21T05:46:53.532Z,68.70
2022-11-21T05:50:09.897Z,70.05
2022-11-21T05:53:26.502Z,69.63
2022-11-21T05:56:42.714Z,67.30
2022-11-21T05:59:59.061Z,71.05
2022-11-21T06:03:36.092Z,73.13
2022-11-21T06:06:52.947Z,73.43
2022-11-21T06:10:10.647Z,77.53
2022-11-21T06:13:27.666Z,77.48
2022-11-21T06:16:45.143Z,79.43
2022-11-21T06:20:02.141Z,74.63
2022-11-21T06:23:18.546Z,79.70
2022-11-21T06:26:35.794Z,77.95
2022-11-21T06:29:52.026Z,76.00
2022-11-21T06:33:10.367Z,76.38
2022-11-21T06:36:27.430Z,75.38
2022-11-21T06:39:45.847Z,77.00
2022-11-21T06:43:02.186Z,77.03
2022-11-21T06:46:19.819Z,74.30
2022-11-21T06:49:36.093Z,73.65
2022-11-21T06:52:52.443Z,75.30
2022-11-21T06:56:10.795Z,74.85
2022-11-21T06:59:27.899Z,69.23
2022-11-21T07:02:44.141Z,74.58
2022-11-21T07:06:02.474Z,77.15
2022-11-21T07:09:32.755Z,84.03
2022-11-21T07:12:50.865Z,79.13
2022-11-21T07:16:14.359Z,80.33
2022-11-21T07:19:32.574Z,82.03
2022-11-21T07:22:51.300Z,81.53
2022-11-21T07:26:13.470Z,82.38
2022-11-21T07:29:30.443Z,81.73
2022-11-21T07:32:56.315Z,83.68
2022-11-21T07:36:13.887Z,82.25
2022-11-21T07:39:31.099Z,84.08
2022-11-21T07:42:51.112Z,83.70
2022-11-21T07:46:12.264Z,82.28
2022-11-21T07:49:29.385Z,81.88
2022-11-21T07:52:47.231Z,81.78
2022-11-21T07:56:05.646Z,83.18
2022-11-21T07:59:21.997Z,81.15
2022-11-21T08:02:39.581Z,81.88
2022-11-21T08:05:56.327Z,79.50
2022-11-21T08:09:12.531Z,81.25
2022-11-21T08:12:47.687Z,81.47
2022-11-21T08:16:07.578Z,81.30
2022-11-21T08:19:26.468Z,79.73
2022-11-21T08:22:47.296Z,74.98
2022-11-21T08:26:04.455Z,74.30
2022-11-21T08:29:21.481Z,75.70
2022-11-21T08:32:37.976Z,73.03
2022-11-21T08:35:54.326Z,75.33
2022-11-21T08:39:12.347Z,72.85
2022-11-21T08:42:28.421Z,70.43
2022-11-21T08:45:46.207Z,68.33
2022-11-21T08:49:02.570Z,69.38
2022-11-21T08:52:19.654Z,73.15
2022-11-21T08:55:36.149Z,69.10
2022-11-21T08:58:56.893Z,69.40
2022-11-21T09:02:15.498Z,68.93
2022-11-21T09:05:33.336Z,68.07
2022-11-21T09:08:49.979Z,70.73
2022-11-21T09:12:06.212Z,68.93
2022-11-21T09:15:37.219Z,68.45
2022-11-21T09:18:53.600Z,71.28
2022-11-21T09:22:10.102Z,67.93
2022-11-21T09:25:26.610Z,68.18
2022-11-21T09:28:43.132Z,65.28
2022-11-21T09:31:59.498Z,67.28
2022-11-21T09:35:16.826Z,65.58
2022-11-21T09:38:34.227Z,62.90
2022-11-21T09:41:58.049Z,61.98
2022-11-21T09:45:19.600Z,62.55
2022-11-21T09:51:55.152Z,132.23
2022-11-21T09:55:20.945Z,61.80
2022-11-21T09:58:47.119Z,59.03
2022-11-21T10:08:31.002Z,58.25
2022-11-21T10:12:13.040Z,56.85
2022-11-21T10:15:47.084Z,62.13
2022-11-21T10:19:48.442Z,60.88
2022-11-21T10:23:55.050Z,186.53
2022-11-21T10:27:17.780Z,71.70
2022-11-21T10:30:35.064Z,64.50
2022-11-21T10:33:53.055Z,60.88
2022-11-21T10:37:17.540Z,62.58
2022-11-21T10:40:44.666Z,61.30
2022-11-21T10:44:21.643Z,61.85
2022-11-21T10:47:43.012Z,58.38
2022-11-21T10:51:11.693Z,58.05
2022-11-21T10:54:40.291Z,59.85
2022-11-21T10:57:58.129Z,56.25
2022-11-21T11:01:16.054Z,57.95
2022-11-21T11:04:43.907Z,56.70
2022-11-21T11:08:08.833Z,60.63
2022-11-21T11:11:31.344Z,62.13
2022-11-21T11:14:47.932Z,55.00
2022-11-21T11:18:09.763Z,56.18
2022-11-21T11:21:31.230Z,57.53
2022-11-21T11:24:51.091Z,56.38
2022-11-21T11:28:12.872Z,56.08
2022-11-21T11:31:30.267Z,57.45
2022-11-21T11:34:54.010Z,60.28
2022-11-21T11:38:13.678Z,54.45
2022-11-21T11:42:11.269Z,53.38
2022-11-21T11:46:01.248Z,55.23
2022-11-21T11:49:21.973Z,54.48
2022-11-21T11:52:41.716Z,56.38
2022-11-21T11:56:01.787Z,55.08
2022-11-21T11:59:27.139Z,53.73
2022-11-21T12:02:53.303Z,52.33
2022-11-21T12:06:36.170Z,51.20
2022-11-21T12:09:50.503Z,55.33
2022-11-21T12:13:12.116Z,55.70
2022-11-21T12:16:31.714Z,54.28
2022-11-21T12:19:49.649Z,56.10
2022-11-21T12:23:06.929Z,54.60
2022-11-21T12:26:49.758Z,55.68
2022-11-21T12:30:39.701Z,56.05
2022-11-21T12:34:03.104Z,52.88
2022-11-21T12:37:30.209Z,52.68
2022-11-21T12:40:56.359Z,52.53
2022-11-21T12:44:23.264Z,52.40
2022-11-21T12:48:18.089Z,53.38
2022-11-21T12:52:27.601Z,52.70
2022-11-21T12:55:48.012Z,53.25
2022-11-21T12:59:08.453Z,53.08
2022-11-21T13:02:35.831Z,54.70
2022-11-21T13:05:57.869Z,52.10
2022-11-21T13:09:24.769Z,53.85
2022-11-21T13:12:54.459Z,53.08
2022-11-21T13:16:23.960Z,53.08
2022-11-21T13:19:51.595Z,52.10
2022-11-21T13:23:10.225Z,53.98
2022-11-21T13:27:02.716Z,52.33
2022-11-21T13:30:34.409Z,53.78
2022-11-21T13:34:06.775Z,53.25
2022-11-21T13:37:56.359Z,53.58
2022-11-21T13:41:43.400Z,57.90
2022-11-21T13:45:00.511Z,54.88
2022-11-21T13:48:57.404Z,54.40
2022-11-21T13:52:17.999Z,52.53
2022-11-21T13:56:06.198Z,51.08
2022-11-21T13:59:47.110Z,53.20
2022-11-21T14:04:05.435Z,53.23
2022-11-21T14:07:36.223Z,51.73
2022-11-21T14:11:04.999Z,53.03
2022-11-21T14:14:46.181Z,50.60
2022-11-21T14:18:05.535Z,50.93
2022-11-21T14:25:27.130Z,50.40
2022-11-21T14:28:45.410Z,50.95
2022-11-21T14:32:02.683Z,52.05
2022-11-21T14:35:26.621Z,52.50
2022-11-21T14:39:35.318Z,52.78
2022-11-21T14:42:25.783Z,49.98
2022-11-21T14:45:42.100Z,49.68
2022-11-21T14:49:02.283Z,48.93
2022-11-21T14:52:31.800Z,50.03
2022-11-21T14:55:49.297Z,48.25
2022-11-21T14:59:10.139Z,47.33
2022-11-21T15:02:30.349Z,50.95
2022-11-21T15:06:01.910Z,48.58
2022-11-21T15:12:42.874Z,50.33
2022-11-21T15:16:01.366Z,48.60
2022-11-21T15:19:30.948Z,49.43
2022-11-21T15:22:49.820Z,48.73
2022-11-21T15:26:10.383Z,49.58
2022-11-21T15:29:31.551Z,50.38
2022-11-21T15:33:13.289Z,50.85
2022-11-21T15:36:32.912Z,50.05
2022-11-21T15:39:55.794Z,51.70
2022-11-21T15:43:43.497Z,50.78
2022-11-21T15:47:22.601Z,55.85
2022-11-21T15:50:38.828Z,55.10
2022-11-21T15:53:57.637Z,53.83
2022-11-21T15:57:29.396Z,53.98
2022-11-21T16:00:50.810Z,51.23
2022-11-21T16:04:42.362Z,50.25
2022-11-21T16:08:08.872Z,53.85
2022-11-21T16:14:39.991Z,53.15
2022-11-21T16:17:58.862Z,53.05
2022-11-21T16:21:17.994Z,53.10
2022-11-21T16:24:36.807Z,54.78
2022-11-21T16:28:44.443Z,53.80
2022-11-21T16:35:32.226Z,53.23
2022-11-21T16:38:54.315Z,52.78
2022-11-21T16:42:39.396Z,51.60
2022-11-21T16:46:01.169Z,51.43
2022-11-21T16:49:29.618Z,51.90
2022-11-21T16:52:47.717Z,51.90
2022-11-21T16:56:16.315Z,52.75
2022-11-21T16:59:34.568Z,53.20
2022-11-21T17:02:54.610Z,51.33
2022-11-21T17:06:16.523Z,53.50
2022-11-21T17:09:35.907Z,51.30
2022-11-21T17:12:53.540Z,50.28
2022-11-21T17:16:16.857Z,52.50
2022-11-21T17:19:33.461Z,50.90
2022-11-21T17:22:49.984Z,51.05
2022-11-21T17:26:11.049Z,52.30
2022-11-21T17:29:31.137Z,48.20
2022-11-21T17:32:48.977Z,49.80
2022-11-21T17:36:07.238Z,51.08
2022-11-21T17:39:29.459Z,52.25
2022-11-21T17:42:44.665Z,51.20
2022-11-21T17:46:11.833Z,47.75
2022-11-21T17:49:31.476Z,47.90
2022-11-21T17:52:51.021Z,45.63
2022-11-21T17:56:11.284Z,46.43
2022-11-21T17:59:30.373Z,46.05
2022-11-21T18:02:49.659Z,46.83
2022-11-21T18:06:24.269Z,47.28
2022-11-21T18:09:42.877Z,46.03
2022-11-21T18:13:01.170Z,45.73
2022-11-21T18:16:21.670Z,45.90
2022-11-21T18:19:38.111Z,47.10
2022-11-21T18:22:54.852Z,46.18
2022-11-21T18:26:18.600Z,43.83
2022-11-21T18:29:37.446Z,44.63
2022-11-21T18:32:59.383Z,44.45
2022-11-21T18:36:18.343Z,45.73
2022-11-21T18:39:39.659Z,43.38
2022-11-21T18:43:19.753Z,43.03
2022-11-21T18:47:47.740Z,43.00
2022-11-21T18:50:41.576Z,43.00
2022-11-21T18:54:04.860Z,43.58
2022-11-21T18:57:32.801Z,42.70
2022-11-21T19:04:45.434Z,42.83
2022-11-21T19:08:14.635Z,43.27
2022-11-21T19:11:36.400Z,44.38
2022-11-21T19:14:56.399Z,43.80
2022-11-21T19:18:18.349Z,47.55
2022-11-21T19:21:38.533Z,45.50
2022-11-21T19:24:59.142Z,44.00
2022-11-21T19:28:15.805Z,44.28
2022-11-21T19:31:39.083Z,43.93
2022-11-21T19:34:53.206Z,45.48
2022-11-21T19:38:10.178Z,47.38
2022-11-21T19:41:31.655Z,46.35
2022-11-21T19:44:47.997Z,46.33
2022-11-21T19:48:06.814Z,47.33
2022-11-21T19:51:26.228Z,45.43
2022-11-21T19:54:46.330Z,47.23
2022-11-21T19:58:03.060Z,44.45
2022-11-21T20:01:23.259Z,45.18
2022-11-21T20:04:41.118Z,52.18
2022-11-21T20:08:03.633Z,50.75
2022-11-21T20:11:22.198Z,52.03
2022-11-21T20:14:39.168Z,47.48
2022-11-21T20:18:00.894Z,46.23
2022-11-21T20:21:21.198Z,49.13
2022-11-21T20:24:41.672Z,48.90
2022-11-21T20:27:59.256Z,47.85
2022-11-21T20:31:21.383Z,50.38
2022-11-21T20:34:41.458Z,51.65
2022-11-21T20:41:43.011Z,44.73
2022-11-21T20:48:20.629Z,51.00
2022-11-21T20:54:59.999Z,45.70
2022-11-21T20:58:17.530Z,37.68
2022-11-21T21:01:34.676Z,29.55
2022-11-21T21:04:57.016Z,23.90
2022-11-21T21:08:14.598Z,22.45
2022-11-21T21:14:52.261Z,18.55
2022-11-21T21:18:09.881Z,19.38
2022-11-21T21:21:29.183Z,20.55
2022-11-21T21:24:45.616Z,20.70
2022-11-21T21:28:02.315Z,22.60
2022-11-21T21:31:22.697Z,23.55
2022-11-21T21:34:38.993Z,21.50
2022-11-21T21:37:55.699Z,22.90
2022-11-21T21:41:13.983Z,23.25
2022-11-21T21:44:33.564Z,22.85
2022-11-21T21:47:48.768Z,24.63
2022-11-21T21:51:14.108Z,24.83
2022-11-21T21:54:31.806Z,27.30
2022-11-21T21:57:52.492Z,25.70
2022-11-21T22:01:12.601Z,25.80
2022-11-21T22:04:29.705Z,23.58
2022-11-21T22:07:49.014Z,24.18
2022-11-21T22:14:29.803Z,24.68
2022-11-21T22:17:55.910Z,22.43
2022-11-21T22:21:22.483Z,26.28
2022-11-21T22:24:40.211Z,27.33
2022-11-21T22:27:56.864Z,25.45
2022-11-21T22:31:14.874Z,24.88
2022-11-21T22:34:34.444Z,22.83
2022-11-21T22:37:50.867Z,23.60
2022-11-21T22:41:14.222Z,23.30
2022-11-21T22:44:30.923Z,24.43
2022-11-21T22:47:48.324Z,23.28
2022-11-21T22:51:05.067Z,23.83
2022-11-21T22:54:21.941Z,23.40
2022-11-21T22:57:40.476Z,22.83
2022-11-21T23:00:56.869Z,20.00
2022-11-21T23:04:17.642Z,19.48
2022-11-21T23:07:32.881Z,20.55
2022-11-21T23:11:20.853Z,19.18
2022-11-21T23:14:38.598Z,18.60
2022-11-21T23:17:57.829Z,21.10
2022-11-21T23:21:16.829Z,21.23
2022-11-21T23:24:33.613Z,20.83
2022-11-21T23:27:50.422Z,21.55
2022-11-21T23:31:08.169Z,21.83
2022-11-21T23:34:24.672Z,20.93
2022-11-21T23:37:41.283Z,21.18
2022-11-21T23:41:01.046Z,21.48
2022-11-21T23:44:19.601Z,21.83
2022-11-21T23:47:36.147Z,22.13
2022-11-21T23:50:52.825Z,20.58
2022-11-21T23:54:09.702Z,21.30
2022-11-21T23:57:26.030Z,21.65
